首页
METAR-TAF:

METAR-TAF

机场 :

花卷機場

花卷, 日本

纬度: 39-26N, 经度: 141-08E, 海拔: 90米

当前天气观测

该预报发布于45分钟前的10:00 UTC
风速5节,风向西,在南转西南西北之间变化
温度 27°C
湿度 70%
气压 1006 hPa
能见度10公里或以上
少量云层高于4000英尺
多云

METAR: RJSI 221000Z 26005KT 200V310 9999 FEW040 BKN/// 27/21 Q1006

时间: 19:45 (10:45 UTC)


TAF: 丢失

超过4000个机场的气象观测和天气预报(METAR&TAF报告)。

可查询的气象台以黄色和红色小点在地图上表示。

将鼠标移到小点上方,可查看气象台名称。

然后点击查看天气观测和预报。

如需切换地图:点击带黑十字的绿色按钮放大地图;点击带横线的绿色按钮缩小地图;或者点击绿色箭头查看邻近地区的地图。


METAR-TAF: